x

San Clemente Basin - 27nm Se Of San Clemente Is, Ca (46086) Wave Buoy

6:50 - Mon 27th Mar 2017 All times are PDT. -7 hours from GMT.

  • Sig Wave height 6.2ft
  • Swell Direction
  • Peak Period 12s
  • Average Period 6s
  • Wind
    16mph, 18mph gusts
  • Sea Temp 60°f
  • Air Temp 58°f
  • Sea Pressure 1016.8mb
  • San Clemente Basin - 27nm Se Of San Clemente Is, Ca
  • San Clemente Basin - 27nm Se Of San Clemente Is, Ca

More Historic Weather Station data

Upgrade to MSW Pro to gain access to the past 30 days of data for over 8000 Wavebouys and Weather Stations around the globe.

Join Pro

Comparision Forecast

View Surf forecast
   
lun. 03/27 6:50 6ft 12s 6s 16 18 mph 1016.8mb 60f 58f
5:50 6.5ft 7s 6s 16 18 mph 1016.4mb 60f 58f
4:50 7ft 13s 6s 18 22 mph 1016.5mb 60f 58f
3:50 6ft 13s 6s 18 22 mph 1016.5mb 60f 58f
2:50 6ft 13s 6s 20 22 mph 1016.8mb 60f 58f
1:50 6ft 14s 6s 20 22 mph 1017.1mb 60f 58f
12:50 6ft 14s 6s 18 25 mph 1017.5mb 60f 58f
dim. 03/26 11:50 5.5ft 13s 6s 20 25 mph 1017.6mb 60f 58f
10:50 6ft 14s 6s 20 22 mph 1017.5mb 60f 58f
9:50 6ft 13s 6s 18 22 mph 1017.7mb 60f 58f
8:50 6ft 14s 6s 18 20 mph 1017.5mb 60f 58f
7:50 6ft 12s 6s 18 20 mph 1017.3mb 60f 58f
6:50 6.5ft 13s 7s 18 20 mph 1017.2mb 60f 58f
5:50 6.5ft 14s 6s 18 22 mph 1017.2mb 60f 58f
4:50 6ft 13s 7s 20 22 mph 1017.4mb 61f 58f
3:50 6ft 14s 7s 16 18 mph 1017.8mb 61f 58f
2:50 6ft 14s 7s 13 18 mph 1018.2mb 60f 58f
1:50 6ft 14s 8s 13 16 mph 1018.5mb 60f 58f
12:50 6ft 15s 7s 11 13 mph 1018.7mb 60f 58f
11:50 5.5ft 14s 7s 11 13 mph 1018.8mb 60f 58f
10:50 6ft 15s 8s 7 9 mph 1018.6mb 60f 58f
9:50 5.5ft 15s 7s 7 9 mph 1017.8mb 60f 58f
8:50 5.5ft 15s 8s 7 11 mph 1017.7mb 60f 58f
7:50 5ft 15s 8s 9 11 mph 1017.1mb 60f 57f
6:50 5ft 15s 7s 9 11 mph 1016.6mb 60f 57f
5:50 5.5ft 15s 7s 9 11 mph 1016.4mb 60f 57f
4:50 5ft 16s 7s 11 13 mph 1016.1mb 60f 57f
3:50 4.5ft 16s 6s 11 16 mph 1016.3mb 60f 57f
2:50 5ft 10s 7s 11 13 mph 1016.9mb 60f 57f
1:50 5ft 10s 6s 9 11 mph 1017.3mb 60f 57f
12:50 5.5ft 16s 6s 9 11 mph 1017.7mb 60f 58f
sam. 03/25 11:50 5ft 11s 6s 13 16 mph 1017.7mb 60f 58f
10:50 5.5ft 11s 6s 13 16 mph 1017.7mb 60f 58f
9:50 5.5ft 13s 6s 16 18 mph 1018.1mb 60f 58f
8:50 5ft 10s 6s 18 20 mph 1017.7mb 60f 58f
7:50 4.5ft 14s 6s 20 22 mph 1017.1mb 61f 58f
6:50 4ft 11s 7s 20 22 mph 1017.1mb 61f 58f
5:50 4.5ft 10s 8s 2
mph
1017.2mb 62f 59f
4:50 4.5ft 14s 8s 7 9 mph 1017.3mb 62f 59f
3:50 4.5ft 10s 7s  -  2 mph 1018.1mb 63f 61f
2:50 4.5ft 13s 7s 2 4 mph 1018.7mb 62f 60f
1:50 4.5ft 11s 7s 4 7 mph 1019.4mb 62f 60f
12:50 5ft 14s 8s 2 4 mph 1019.9mb 62f 60f
11:50 5ft 10s 7s  -  2 mph 1020.3mb 61f 60f
10:50 4.5ft 11s 7s 4 7 mph 1020.4mb 60f 59f
9:50 4.5ft 11s 6s 11 13 mph 1020.8mb 60f 59f
8:50 4.5ft 14s 6s 11 13 mph 1020.6mb 60f 59f
7:50 4ft 15s 6s 16 20 mph 1020.5mb 60f 58f
6:50 4ft 14s 6s 16 18 mph 1019.9mb 60f 58f
5:50 4ft 15s 6s 18 20 mph 1019.5mb 60f 59f
4:50 3.5ft 14s 6s 16 18 mph 1019.9mb 60f 58f
3:50 4.5ft 14s 7s 13 16 mph 1020.2mb 60f 58f
2:50 4.5ft 15s 7s 9 11 mph 1020.9mb 60f 58f
1:50 4.5ft 14s 6s 9 11 mph 1021.3mb 60f 58f
12:50 4.5ft 16s 5s 11 13 mph 1021.8mb 60f 58f
ven. 03/24 11:50 4.5ft 14s 5s 16 18 mph 1022.5mb 60f 58f
10:50 4.5ft 15s 5s 13 16 mph 1022.9mb 60f 58f
9:50 5ft 15s 6s 18 20 mph 1022.7mb 60f 58f
8:50 4.5ft 15s 6s 20 22 mph 1022.2mb 60f 58f
7:50 4.5ft 15s 5s 18 22 mph 1021.9mb 60f 58f
6:50 4.5ft 14s 6s 16 20 mph 1021.6mb 60f 59f
5:50 4ft 14s 6s 16 18 mph 1021.3mb 60f 59f
4:50 4.5ft 15s 6s 16 18 mph 1021.9mb 61f 58f
3:50 4ft 15s 7s 13 16 mph 1022.6mb 61f 58f
2:50 4.5ft 15s 7s 13 18 mph 1023.1mb 61f 58f
1:50 5ft 15s 7s 7 9 mph 1023mb 61f 57f
12:50 4.5ft 14s 7s 4 9 mph 1023.8mb 61f 57f
11:50 5ft 14s 7s 4
mph
1024.6mb 60f 57f
10:50 5ft 14s 7s 4 7 mph 1024.5mb 60f 56f
9:50 5ft 15s 7s 4 7 mph 1024.5mb 60f 57f
8:50 6ft 14s 7s 7 9 mph 1024mb 60f 56f
7:50 6ft 15s 7s 7 9 mph 1023.9mb 59f 56f
6:50 6ft 15s 7s 7 11 mph 1023.7mb 59f 56f
5:50 6ft 15s 7s 4 7 mph 1023.4mb 59f 56f
4:50 6.5ft 14s 7s  -  4 mph 1023.2mb 59f 56f
3:50 6.5ft 8s 7s 4 7 mph 1023.3mb 60f 56f
2:50 7ft 8s 7s 4
mph
1023.6mb 60f 57f
1:50 7ft 8s 7s 2 4 mph 1023.8mb 60f 57f
12:50 7ft 16s 7s 2 4 mph 1023.9mb 60f 57f
jeu. 03/23 11:50 7.5ft 15s 7s 4 7 mph 1023.9mb 59f 57f
10:50 7.5ft 16s 6s 13 18 mph 1023.8mb 59f 57f
9:50 8ft 8s 7s 18 20 mph 1023.4mb 59f 57f
8:50 9ft 9s 7s 16 20 mph 1022.8mb 59f 57f
7:50 8ft 8s 7s 16 18 mph 1022.2mb 59f 57f
6:50 8.5ft 8s 7s 18 20 mph 1021.7mb 60f 57f
5:50 8.5ft 8s 7s 13 18 mph 1021.3mb 60f 57f
4:50 9ft 8s 7s 18 20 mph 1021.2mb 60f 57f
3:50 8ft 8s 7s 20 22 mph 1021.5mb 60f 57f